Aeroporto :
LOGIN :

Iscrizione | Disclaimer

   EN    FR    IT 

 










Sommario :    VFR   VFR Marginale   IFR   IFR Intensivo   IFR Molto Intensivo
Visibilità : 
Base nubi : 
>= 8 km
>= 3000ft
5 / 8 km
1000 / 3000 ft
1500m / 5 km
500 / 1000 ft
800 / 1500m
200 / 500 ft
< 800m
< 200 ft
Simboli :   Temporali  Nebbia  Neve Forte  Precipitazioni Forti  Vento > 20 kt
SIGMETs :   Varie  Temporali  Ghiacco  Turbolenza  Onda orograficha  Ceneri Vulcaniche






- Altitudine del aeroporto : 3368 ft


LSGC - Les Eplatures

ULTIMO METAR :
  • 042120Z AUTO 23005KT 190V260 9999 BKN008 09/08 Q1001

METARs OBSOLETI :
  • 042050Z AUTO 26004KT 230V300 9999 -RA FEW014 08/08 Q1001
  • 042020Z AUTO 25006KT 220V290 8000 -RA FEW008 SCT016 BKN045 09/08 Q1001
  • 041950Z AUTO VRB03KT 9999 FEW017 SCT022 BKN032 09/09 Q1001
  • 041920Z AUTO 25003KT 200V280 9999 FEW019 09/09 Q1000
  • 041850Z AUTO 22004KT 180V250 9999 FEW012 SCT017 BKN048 10/09 Q1000

TAF TAF LSGC
Valido dal 04 a 15 ore il 05 a 00 ore UTC


041425Z 0415/0424 26009KT 9999 FEW020 SCT030
TEMPO 0420/0422 29015G25KT 4900 SHRA SCT010 BKN020



MetMap, La meteo Aeronautica in un colpo d'occhio ! - Copyright ORBIFLY Dicembre 2007 - Disclaimer

ORBIFLY MET'MAP TEAM :

Programmazione e sviluppo : Alexandra Zaïnal
Concezione : Baudouin d'Aumeries
Aiuto per la programmazione : Marc-Olivier Méhu
Supporto tecnico e logistico : Manuel Goepfert
Aiuto per la traduzione : Arnaldo La Scala

Contatto : metmap@orbifly.com




FONTI E CREDITI :

   NOAA